General Guemes, Argentina
Current Conditions -  °F | °C
As of 2:00 PM on Tuesday 21 Oct 2014 (Local Time) from SASJ Reporting Station
Broken Clouds Broken Clouds  
Wind Chill: 81°   Ceiling: 20000
Heat Index: 81°   Visibility: 6mi
Dew Point: 61°   Wind: 6mph
Humidity: 51%   Direction: 110°ESE
Pressure: 30.09"   Gusts: NA
Location:  24.67°S, 65.05°W
Report Text: SASJ 211700Z 11005KT 9999 SCT028 BKN20027/16 Q1019
Loading
Personal Weather Stations






























Interactive Weather Map
Tropical Storm Tracking
New forecast layout! Learn more

10-Day Weather Forecast

Advertisements
Track Severe Weather on mobile